createdAt,value
2019-03-23T00:00:06.837Z,81.10
2019-03-23T00:05:11.258Z,81.80
2019-03-23T00:10:16.816Z,82.00
2019-03-23T00:15:21.866Z,85.10
2019-03-23T00:20:27.305Z,85.90
2019-03-23T00:25:31.929Z,90.60
2019-03-23T00:30:35.507Z,90.50
2019-03-23T00:35:45.678Z,88.20
2019-03-23T00:40:57.425Z,84.70
2019-03-23T00:46:02.528Z,87.40
2019-03-23T00:51:28.395Z,84.60
2019-03-23T00:57:18.436Z,84.50
2019-03-23T01:03:00.678Z,83.60
2019-03-23T01:08:07.859Z,83.80
2019-03-23T01:13:18.186Z,84.10
2019-03-23T01:18:25.257Z,84.80
2019-03-23T01:23:29.759Z,84.10
2019-03-23T01:28:34.439Z,84.20
2019-03-23T01:33:37.905Z,83.70
2019-03-23T01:38:42.525Z,83.40
2019-03-23T01:43:46.884Z,84.30
2019-03-23T01:48:52.780Z,83.70
2019-03-23T01:54:01.931Z,83.40
2019-03-23T01:59:09.356Z,83.80
2019-03-23T02:04:33.203Z,84.10
2019-03-23T02:09:42.415Z,83.60
2019-03-23T02:14:46.807Z,86.20
2019-03-23T02:19:51.915Z,86.90
2019-03-23T02:24:58.729Z,89.90
2019-03-23T02:30:03.566Z,89.90
2019-03-23T02:35:08.970Z,88.90
2019-03-23T02:40:13.432Z,90.30
2019-03-23T02:45:20.516Z,88.30
2019-03-23T02:50:25.202Z,86.70
2019-03-23T02:55:29.694Z,88.60
2019-03-23T03:00:34.173Z,87.20
2019-03-23T03:05:41.225Z,86.50
2019-03-23T03:11:23.729Z,85.30
2019-03-23T03:16:29.080Z,85.10
2019-03-23T03:21:36.676Z,85.80
2019-03-23T03:26:42.635Z,86.00
2019-03-23T03:31:51.211Z,85.00
2019-03-23T03:36:58.427Z,85.00
2019-03-23T03:42:21.827Z,85.50
2019-03-23T03:47:43.935Z,85.20
2019-03-23T03:52:52.309Z,85.60
2019-03-23T03:58:02.324Z,86.20
2019-03-23T04:03:06.919Z,86.40
2019-03-23T04:08:12.720Z,87.50
2019-03-23T04:13:17.044Z,89.10
2019-03-23T04:18:43.168Z,88.90
2019-03-23T04:23:47.777Z,87.70
2019-03-23T04:28:54.974Z,86.90
2019-03-23T04:33:59.634Z,87.80
2019-03-23T04:39:06.035Z,89.60
2019-03-23T04:44:14.384Z,89.50
2019-03-23T04:49:19.294Z,89.20
2019-03-23T04:54:23.939Z,91.70
2019-03-23T04:59:31.139Z,90.50
2019-03-23T05:04:35.558Z,90.80
2019-03-23T05:09:40.294Z,90.90
2019-03-23T05:15:01.352Z,90.10
2019-03-23T05:20:06.853Z,90.10
2019-03-23T05:25:22.186Z,90.30
2019-03-23T05:30:29.615Z,89.80
2019-03-23T05:35:36.584Z,89.70
2019-03-23T05:40:48.345Z,89.40
2019-03-23T05:45:53.648Z,88.30
2019-03-23T05:50:58.407Z,89.20
2019-03-23T05:56:02.754Z,89.40
2019-03-23T06:01:07.157Z,89.50
2019-03-23T06:06:11.843Z,89.90
2019-03-23T06:11:16.464Z,89.30
2019-03-23T06:16:23.647Z,89.70
2019-03-23T06:21:28.001Z,90.00
2019-03-23T06:26:34.046Z,89.30
2019-03-23T06:31:39.519Z,89.30
2019-03-23T06:36:51.160Z,89.40
2019-03-23T06:41:57.210Z,89.70
2019-03-23T06:47:02.801Z,89.60
2019-03-23T06:52:07.108Z,88.90
2019-03-23T06:57:11.412Z,89.10
2019-03-23T07:02:18.197Z,89.60
2019-03-23T07:07:23.090Z,88.70
2019-03-23T07:12:29.139Z,89.30
2019-03-23T07:17:58.155Z,89.30
2019-03-23T07:23:02.966Z,88.30
2019-03-23T07:28:08.061Z,89.50
2019-03-23T07:33:13.803Z,88.30
2019-03-23T07:38:18.581Z,88.80
2019-03-23T07:43:22.939Z,88.40
2019-03-23T07:48:30.825Z,87.40
2019-03-23T07:53:54.589Z,86.80
2019-03-23T07:58:59.032Z,86.60
2019-03-23T08:04:13.979Z,87.00
2019-03-23T08:09:20.718Z,87.20
2019-03-23T08:14:32.771Z,88.30
2019-03-23T08:19:37.546Z,87.50
2019-03-23T08:24:42.277Z,87.00
2019-03-23T08:29:45.518Z,86.70
2019-03-23T08:34:49.873Z,86.60
2019-03-23T08:39:54.146Z,86.00
2019-03-23T08:44:58.537Z,87.00
2019-03-23T08:50:02.891Z,85.70
2019-03-23T08:55:07.184Z,85.90
2019-03-23T09:00:11.632Z,86.10
2019-03-23T09:05:16.377Z,85.40
2019-03-23T09:10:26.249Z,86.10
2019-03-23T09:15:32.137Z,85.50
2019-03-23T09:20:36.519Z,85.10
2019-03-23T09:25:42.020Z,84.60
2019-03-23T09:31:14.198Z,84.40
2019-03-23T09:36:22.909Z,85.00
2019-03-23T09:42:02.060Z,84.50
2019-03-23T09:47:11.980Z,84.70
2019-03-23T09:52:18.710Z,83.80
2019-03-23T09:57:24.402Z,84.90
2019-03-23T10:02:36.188Z,83.60
2019-03-23T10:08:03.574Z,83.00
2019-03-23T10:13:08.085Z,83.40
2019-03-23T10:19:13.691Z,83.10
2019-03-23T10:24:46.599Z,82.60
2019-03-23T10:29:51.347Z,82.60
2019-03-23T10:34:56.028Z,82.00
2019-03-23T10:40:02.496Z,81.40
2019-03-23T10:45:07.028Z,81.20
2019-03-23T10:50:11.395Z,80.80
2019-03-23T10:55:17.278Z,80.40
2019-03-23T11:00:21.632Z,80.00
2019-03-23T11:05:26.078Z,79.60
2019-03-23T11:10:31.538Z,80.20
2019-03-23T11:15:36.100Z,79.00
2019-03-23T11:20:41.047Z,78.90
2019-03-23T11:25:45.311Z,79.20
2019-03-23T11:30:49.780Z,79.00
2019-03-23T11:35:58.106Z,79.10
2019-03-23T11:41:01.300Z,79.50
2019-03-23T11:46:05.676Z,79.40
2019-03-23T11:51:10.017Z,78.50
2019-03-23T11:56:14.587Z,77.90
2019-03-23T12:01:19.134Z,78.00
2019-03-23T12:06:23.443Z,77.50
2019-03-23T12:11:28.112Z,76.90
2019-03-23T12:16:31.578Z,76.50
2019-03-23T12:21:36.150Z,75.70
2019-03-23T12:26:40.482Z,75.60
2019-03-23T12:31:45.111Z,74.70
2019-03-23T12:36:49.681Z,73.60
2019-03-23T12:41:54.662Z,73.40
2019-03-23T12:46:58.996Z,69.90
2019-03-23T12:52:04.619Z,71.00
2019-03-23T12:57:09.047Z,70.70
2019-03-23T13:02:13.400Z,70.50
2019-03-23T13:07:17.758Z,70.70
2019-03-23T13:12:22.102Z,71.40
2019-03-23T13:17:26.763Z,70.40
2019-03-23T13:22:31.314Z,70.60
2019-03-23T13:27:35.924Z,70.00
2019-03-23T13:32:40.253Z,71.20
2019-03-23T13:37:44.828Z,70.90
2019-03-23T13:42:49.136Z,70.40
2019-03-23T13:47:54.939Z,70.30
2019-03-23T13:52:59.413Z,67.70
2019-03-23T13:58:09.890Z,70.20
2019-03-23T14:03:14.894Z,69.00
2019-03-23T14:08:19.518Z,68.30
2019-03-23T14:13:27.785Z,66.40
2019-03-23T14:18:32.044Z,68.70
2019-03-23T14:23:36.437Z,68.80
2019-03-23T14:28:40.850Z,69.00
2019-03-23T14:33:47.361Z,68.00
2019-03-23T14:38:52.159Z,69.10
2019-03-23T14:43:59.443Z,69.90
2019-03-23T14:49:03.860Z,67.80
2019-03-23T14:54:08.657Z,69.10
2019-03-23T14:59:11.838Z,70.10
2019-03-23T15:04:16.146Z,70.60
2019-03-23T15:09:20.487Z,70.70
2019-03-23T15:14:24.759Z,70.70
2019-03-23T15:19:29.362Z,71.20
2019-03-23T15:24:37.815Z,71.30
2019-03-23T15:29:42.466Z,71.60
2019-03-23T15:34:47.280Z,71.90
2019-03-23T15:39:50.957Z,72.40
2019-03-23T15:44:55.388Z,72.30
2019-03-23T15:49:59.773Z,72.90
2019-03-23T15:55:05.781Z,73.30
2019-03-23T16:00:11.431Z,73.60
2019-03-23T16:05:18.940Z,73.80
2019-03-23T16:10:23.298Z,74.10
2019-03-23T16:15:27.566Z,74.20
2019-03-23T16:20:35.656Z,74.40
2019-03-23T16:25:43.354Z,74.70
2019-03-23T16:30:48.143Z,74.80
2019-03-23T16:35:53.874Z,75.00
2019-03-23T16:41:01.626Z,75.30
2019-03-23T16:46:06.025Z,75.50
2019-03-23T16:51:12.187Z,76.30
2019-03-23T16:56:16.569Z,75.90
2019-03-23T17:01:23.730Z,76.00
2019-03-23T17:06:28.055Z,76.10
2019-03-23T17:11:39.283Z,76.20
2019-03-23T17:16:46.744Z,76.30
2019-03-23T17:21:53.034Z,76.60
2019-03-23T17:27:00.064Z,77.00
2019-03-23T17:32:06.352Z,77.10
2019-03-23T17:37:10.935Z,77.90
2019-03-23T17:42:15.615Z,77.30
2019-03-23T17:47:19.954Z,77.20
2019-03-23T17:52:25.131Z,77.40
2019-03-23T17:57:29.828Z,77.90
2019-03-23T18:02:34.963Z,78.10
2019-03-23T18:07:39.911Z,77.90
2019-03-23T18:12:44.319Z,77.90
2019-03-23T18:17:56.166Z,78.20
2019-03-23T18:23:00.539Z,78.00
2019-03-23T18:28:04.933Z,78.20
2019-03-23T18:33:11.162Z,78.50
2019-03-23T18:38:15.546Z,78.60
2019-03-23T18:43:27.339Z,81.20
2019-03-23T18:48:26.288Z,80.30
2019-03-23T18:53:30.600Z,81.60
2019-03-23T18:58:34.887Z,83.50
2019-03-23T19:03:40.449Z,84.00
2019-03-23T19:08:44.909Z,85.80
2019-03-23T19:13:49.637Z,83.70
2019-03-23T19:18:52.827Z,85.00
2019-03-23T19:23:57.194Z,83.90
2019-03-23T19:29:01.489Z,88.30
2019-03-23T19:34:05.852Z,87.20
2019-03-23T19:39:14.143Z,90.10
2019-03-23T19:44:21.265Z,86.90
2019-03-23T19:49:25.598Z,86.80
2019-03-23T19:54:30.160Z,87.80
2019-03-23T19:59:34.505Z,88.10
2019-03-23T20:04:39.403Z,87.60
2019-03-23T20:09:43.708Z,90.60
2019-03-23T20:14:47.984Z,90.50
2019-03-23T20:19:52.297Z,89.50
2019-03-23T20:24:56.644Z,90.70
2019-03-23T20:30:01.066Z,91.30
2019-03-23T20:35:05.741Z,91.00
2019-03-23T20:40:10.600Z,90.90
2019-03-23T20:45:28.537Z,90.80
2019-03-23T20:50:33.718Z,90.30
2019-03-23T20:55:38.024Z,89.90
2019-03-23T21:00:42.435Z,88.10
2019-03-23T21:05:47.140Z,89.60
2019-03-23T21:10:50.378Z,89.70
2019-03-23T21:15:54.674Z,89.20
2019-03-23T21:20:58.994Z,89.70
2019-03-23T21:26:04.128Z,88.60
2019-03-23T21:31:09.496Z,88.20
2019-03-23T21:36:13.826Z,88.10
2019-03-23T21:41:18.515Z,88.50
2019-03-23T21:46:21.690Z,88.20
2019-03-23T21:51:25.981Z,87.70
2019-03-23T21:56:31.163Z,87.60
2019-03-23T22:01:35.819Z,87.10
2019-03-23T22:06:40.125Z,86.30
2019-03-23T22:11:44.463Z,87.10
2019-03-23T22:16:50.167Z,86.90
2019-03-23T22:21:54.529Z,86.90
2019-03-23T22:26:58.889Z,87.00
2019-03-23T22:32:07.106Z,86.80
2019-03-23T22:37:11.411Z,86.80
2019-03-23T22:42:16.516Z,86.80
2019-03-23T22:47:20.865Z,86.00
2019-03-23T22:52:25.242Z,85.90
2019-03-23T22:57:29.479Z,87.80
2019-03-23T23:02:33.934Z,87.60
2019-03-23T23:07:38.318Z,87.70
2019-03-23T23:12:42.617Z,88.30
2019-03-23T23:17:47.141Z,87.70
2019-03-23T23:22:51.488Z,88.00
2019-03-23T23:27:56.113Z,87.50
2019-03-23T23:33:00.679Z,86.80
2019-03-23T23:38:05.053Z,87.50
2019-03-23T23:43:09.831Z,89.80
2019-03-23T23:48:13.287Z,90.20
2019-03-23T23:53:17.639Z,90.10
2019-03-23T23:58:22.251Z,90.00
